Time;durP1;ratioP1;P1;durP2;ratioP2;P2;SDS_P1;SDS_P2;PMS_P1;PMS_P2;Temp;Humidity;BMP_temperature;BMP_pressure;BME280_temperature;BME280_humidity;BME280_pressure;Samples;Min_cycle;Max_cycle;Signal;HPM_P1;HPM_P2
2021/07/13 00:01:29;;;;;;;0.10;0.10;;;19.30;99.90;;;;;;5055270;28;20029;-72
2021/07/13 00:03:55;;;;;;;0.00;0.00;;;19.50;99.90;;;;;;5037233;28;20033;-72
2021/07/13 00:06:21;;;;;;;0.10;0.10;;;19.50;99.90;;;;;;5055285;28;20021;-71
2021/07/13 00:08:51;;;;;;;0.10;0.10;;;19.60;99.90;;;;;;5055127;28;20100;-71
2021/07/13 00:11:21;;;;;;;0.10;0.10;;;19.70;99.90;;;;;;5037233;28;20021;-71
2021/07/13 00:13:48;;;;;;;0.13;0.13;;;19.70;99.90;;;;;;5020614;28;20020;-72
2021/07/13 00:16:15;;;;;;;0.00;0.00;;;19.70;99.90;;;;;;5071281;23;20049;-94
2021/07/13 00:18:41;;;;;;;0.10;0.10;;;19.40;99.90;;;;;;5043104;28;20072;-94
2021/07/13 00:21:07;;;;;;;0.10;0.10;;;19.20;99.90;;;;;;5043233;28;20010;-94
2021/07/13 00:23:37;;;;;;;0.10;0.10;;;19.20;99.90;;;;;;5043081;28;20109;-93
2021/07/13 00:26:04;;;;;;;0.10;0.10;;;19.00;99.90;;;;;;5043105;28;20025;-94
2021/07/13 00:28:33;;;;;;;0.10;0.10;;;19.00;99.90;;;;;;5043016;28;20017;-94
2021/07/13 00:31:09;;;;;;;0.10;0.10;;;18.90;99.90;;;;;;5043010;28;20018;-94
2021/07/13 00:33:38;;;;;;;0.10;0.10;;;18.70;99.90;;;;;;5043370;28;20037;-95
2021/07/13 00:36:04;;;;;;;0.05;0.05;;;19.00;99.90;;;;;;5043021;28;20033;-95
2021/07/13 00:38:30;;;;;;;0.00;0.00;;;19.10;99.90;;;;;;5042853;28;20093;-94
2021/07/13 00:40:56;;;;;;;0.13;0.13;;;19.10;99.90;;;;;;5042902;28;20013;-94
2021/07/13 00:43:21;;;;;;;0.10;0.10;;;19.10;99.90;;;;;;5042978;28;20024;-94
2021/07/13 00:45:47;;;;;;;0.10;0.10;;;19.00;99.90;;;;;;5042901;28;20017;-93
2021/07/13 00:48:13;;;;;;;0.10;0.10;;;18.90;99.90;;;;;;5042927;28;20032;-94
2021/07/13 00:50:43;;;;;;;0.10;0.10;;;18.80;99.90;;;;;;5042787;28;20013;-93
2021/07/13 00:53:09;;;;;;;0.00;0.00;;;18.70;99.90;;;;;;5042817;28;20094;-94
2021/07/13 00:55:35;;;;;;;0.20;0.20;;;18.70;99.90;;;;;;5042682;28;20013;-94
2021/07/13 00:58:04;;;;;;;0.10;0.10;;;18.70;99.90;;;;;;5041337;28;20018;-93
2021/07/13 01:00:32;;;;;;;0.32;0.32;;;18.80;99.90;;;;;;5042574;28;20010;-94
2021/07/13 01:03:06;;;;;;;0.10;0.10;;;18.70;99.90;;;;;;5042412;28;20096;-94
2021/07/13 01:05:41;;;;;;;0.43;0.43;;;18.60;99.90;;;;;;5043029;28;20042;-93
2021/07/13 01:08:07;;;;;;;0.03;0.03;;;18.50;99.90;;;;;;5042432;28;20017;-93
2021/07/13 01:10:57;;;;;;;0.10;0.10;;;18.50;99.90;;;;;;5042467;28;20032;-94
2021/07/13 01:13:26;;;;;;;0.10;0.10;;;18.60;99.90;;;;;;5042442;28;20014;-95
2021/07/13 01:16:15;;;;;;;0.10;0.10;;;18.80;99.90;;;;;;5042360;28;20096;-94
2021/07/13 01:18:47;;;;;;;0.00;0.00;;;18.90;99.90;;;;;;5042267;28;20059;-93
2021/07/13 01:21:19;;;;;;;0.15;0.15;;;19.00;99.90;;;;;;5042093;28;20018;-93
2021/07/13 01:24:16;;;;;;;0.10;0.10;;;19.10;99.90;;;;;;5042169;28;20128;-94
2021/07/13 01:26:49;;;;;;;0.10;0.10;;;19.00;99.90;;;;;;5042093;28;20056;-94
2021/07/13 01:29:18;;;;;;;0.10;0.10;;;19.00;99.90;;;;;;5042095;28;20032;-94
2021/07/13 01:31:46;;;;;;;0.20;0.20;;;18.90;99.90;;;;;;5042008;28;20020;-93
2021/07/13 01:34:22;;;;;;;0.10;0.10;;;18.90;99.90;;;;;;5041971;28;20014;-93
2021/07/13 01:37:09;;;;;;;0.10;0.10;;;18.90;99.90;;;;;;5041912;28;20013;-93
2021/07/13 01:39:38;;;;;;;0.10;0.10;;;18.80;99.90;;;;;;5041898;28;20105;-95
2021/07/13 01:42:08;;;;;;;0.10;0.10;;;18.90;99.90;;;;;;5041747;28;20092;-94
2021/07/13 01:44:35;;;;;;;0.00;0.00;;;19.00;99.90;;;;;;5041791;28;20018;-96
2021/07/13 01:47:01;;;;;;;0.10;0.10;;;19.00;99.90;;;;;;5041533;28;20040;-93
2021/07/13 01:49:28;;;;;;;0.10;0.10;;;19.10;99.90;;;;;;5041665;28;20019;-94
2021/07/13 01:51:56;;;;;;;0.10;0.10;;;19.10;99.90;;;;;;5041611;28;20084;-94
2021/07/13 01:54:24;;;;;;;0.10;0.10;;;19.10;99.90;;;;;;5041741;28;20006;-93
2021/07/13 01:56:57;;;;;;;0.10;0.10;;;19.00;99.90;;;;;;5041681;28;20077;-95
2021/07/13 01:59:26;;;;;;;0.38;0.38;;;19.00;99.90;;;;;;5041457;28;20021;-93
2021/07/13 02:02:01;;;;;;;0.10;0.10;;;19.00;99.90;;;;;;5042129;28;20033;-94
2021/07/13 02:04:29;;;;;;;0.00;0.00;;;19.10;99.90;;;;;;5041385;28;20070;-94
2021/07/13 02:06:57;;;;;;;0.00;0.00;;;19.10;99.90;;;;;;5041481;28;20033;-94
2021/07/13 02:09:23;;;;;;;0.10;0.10;;;19.20;99.90;;;;;;5040905;28;20014;-93
2021/07/13 02:11:49;;;;;;;0.20;0.20;;;19.30;99.90;;;;;;5041262;28;20028;-94
2021/07/13 02:14:15;;;;;;;0.10;0.10;;;19.30;99.90;;;;;;5041149;28;20053;-94
2021/07/13 02:16:41;;;;;;;0.00;0.00;;;19.30;99.90;;;;;;5040926;28;20025;-93
2021/07/13 02:19:08;;;;;;;0.03;0.03;;;19.20;99.90;;;;;;5041201;28;20013;-94
2021/07/13 02:21:34;;;;;;;0.10;0.10;;;19.20;99.90;;;;;;5041153;28;20041;-93
2021/07/13 02:24:01;;;;;;;0.00;0.00;;;19.20;99.90;;;;;;5041217;28;20016;-94
2021/07/13 02:26:42;;;;;;;0.00;0.00;;;19.10;99.90;;;;;;5040918;28;20057;-93
2021/07/13 02:29:26;;;;;;;0.10;0.10;;;19.00;99.90;;;;;;5041055;28;20013;-94
2021/07/13 02:31:59;;;;;;;0.10;0.10;;;19.10;99.90;;;;;;5040886;28;20052;-93
2021/07/13 02:34:35;;;;;;;6.22;2.67;;;19.30;99.90;;;;;;5040726;28;20014;-94
2021/07/13 02:37:07;;;;;;;0.08;0.08;;;19.30;99.90;;;;;;5040794;28;20021;-94
2021/07/13 02:39:34;;;;;;;0.10;0.10;;;19.20;99.90;;;;;;5040877;28;20024;-94
2021/07/13 02:42:01;;;;;;;0.00;0.00;;;19.10;99.90;;;;;;5040583;28;20029;-92
2021/07/13 02:44:31;;;;;;;0.10;0.10;;;19.10;99.90;;;;;;5040774;28;20018;-94
2021/07/13 02:46:59;;;;;;;0.10;0.10;;;19.00;99.90;;;;;;5040593;28;20040;-95
2021/07/13 02:49:31;;;;;;;0.08;0.08;;;18.90;99.90;;;;;;5040594;28;20025;-94
2021/07/13 02:52:01;;;;;;;0.00;0.00;;;18.80;99.90;;;;;;5040446;28;20017;-94
2021/07/13 02:54:29;;;;;;;0.40;0.40;;;18.80;99.90;;;;;;5040751;28;20030;-91
2021/07/13 02:57:01;;;;;;;0.10;0.10;;;18.80;99.90;;;;;;5040635;28;20061;-94
2021/07/13 02:59:29;;;;;;;0.10;0.10;;;18.70;99.90;;;;;;5040354;28;20088;-95
2021/07/13 03:01:55;;;;;;;0.13;0.13;;;18.60;99.90;;;;;;5040112;28;20035;-93
2021/07/13 03:04:22;;;;;;;0.10;0.10;;;18.40;99.90;;;;;;5040415;28;20014;-94
2021/07/13 03:06:49;;;;;;;0.13;0.13;;;18.30;99.90;;;;;;5040363;28;20025;-93
2021/07/13 03:09:15;;;;;;;0.10;0.10;;;18.20;99.90;;;;;;5040430;28;20010;-94
2021/07/13 03:11:41;;;;;;;0.08;0.08;;;18.20;99.90;;;;;;5040146;28;20021;-94
2021/07/13 03:14:11;;;;;;;0.10;0.10;;;18.10;99.90;;;;;;5040173;28;20013;-95
2021/07/13 03:16:38;;;;;;;0.10;0.10;;;18.20;99.90;;;;;;5040228;28;20025;-94
2021/07/13 03:19:06;;;;;;;0.10;0.10;;;18.40;99.90;;;;;;5040382;28;20081;-94
2021/07/13 03:21:35;;;;;;;0.00;0.00;;;18.50;99.90;;;;;;5039361;28;20073;-93
2021/07/13 03:24:04;;;;;;;0.10;0.10;;;18.40;99.90;;;;;;5040151;28;20016;-95
2021/07/13 03:26:33;;;;;;;1.55;0.30;;;18.50;99.90;;;;;;5040292;28;20045;-95
2021/07/13 03:29:00;;;;;;;0.43;0.43;;;18.50;99.90;;;;;;5040128;28;20056;-93
2021/07/13 03:31:27;;;;;;;0.10;0.10;;;18.40;99.90;;;;;;5040094;28;20018;-94
2021/07/13 03:33:55;;;;;;;0.10;0.10;;;18.30;99.90;;;;;;5040211;28;20013;-94
2021/07/13 03:36:24;;;;;;;0.10;0.10;;;18.40;99.90;;;;;;5040014;28;20088;-95
2021/07/13 03:38:51;;;;;;;0.20;0.20;;;18.40;99.90;;;;;;5040112;28;20013;-95
2021/07/13 03:41:17;;;;;;;0.10;0.10;;;18.30;99.90;;;;;;5039809;28;20017;-95
2021/07/13 03:43:44;;;;;;;0.45;0.43;;;18.50;99.90;;;;;;5040136;28;20010;-93
2021/07/13 03:46:10;;;;;;;0.10;0.10;;;18.40;99.90;;;;;;5039861;28;20028;-96
2021/07/13 03:48:40;;;;;;;0.10;0.10;;;18.40;99.90;;;;;;5040048;28;20081;-96
2021/07/13 03:51:10;;;;;;;0.10;0.10;;;18.30;99.90;;;;;;5039834;28;20014;-95
2021/07/13 03:53:35;;;;;;;0.10;0.10;;;18.40;99.90;;;;;;5039930;28;20051;-94
2021/07/13 03:56:01;;;;;;;0.10;0.10;;;18.40;99.90;;;;;;5039805;28;20009;-96
2021/07/13 03:58:27;;;;;;;0.10;0.10;;;18.40;99.90;;;;;;5039929;28;20018;-95
2021/07/13 04:00:53;;;;;;;0.00;0.00;;;18.50;99.90;;;;;;5039690;28;20239;-93
2021/07/13 04:03:19;;;;;;;0.10;0.10;;;18.40;99.90;;;;;;5039827;28;20013;-94
2021/07/13 04:05:46;;;;;;;0.10;0.10;;;18.50;99.90;;;;;;5039675;28;20029;-95
2021/07/13 04:08:11;;;;;;;1.55;0.70;;;18.40;99.90;;;;;;5039784;28;20057;-94
2021/07/13 04:10:37;;;;;;;0.00;0.00;;;18.20;99.90;;;;;;5039505;28;20018;-93
2021/07/13 04:13:03;;;;;;;0.40;0.40;;;18.00;99.90;;;;;;5039576;28;20017;-95
2021/07/13 04:15:29;;;;;;;0.55;0.25;;;18.10;99.90;;;;;;5039572;28;20017;-95
2021/07/13 04:17:55;;;;;;;0.10;0.10;;;18.10;99.90;;;;;;5039809;28;20024;-93
2021/07/13 04:20:21;;;;;;;0.70;0.70;;;18.00;99.90;;;;;;5039667;28;20028;-95
2021/07/13 04:22:47;;;;;;;0.20;0.20;;;17.90;99.90;;;;;;5039275;28;20025;-93
2021/07/13 04:25:13;;;;;;;0.20;0.20;;;18.00;99.90;;;;;;5039527;28;20021;-94
2021/07/13 04:27:40;;;;;;;0.15;0.15;;;17.90;99.90;;;;;;5039554;28;20052;-95
2021/07/13 04:30:07;;;;;;;0.00;0.00;;;18.00;99.90;;;;;;5039556;28;20010;-95
2021/07/13 04:32:34;;;;;;;0.15;0.15;;;18.00;99.90;;;;;;5040309;28;20033;-96
2021/07/13 04:34:59;;;;;;;0.63;0.63;;;18.10;99.90;;;;;;5042926;28;20014;-94
2021/07/13 04:37:49;;;;;;;0.00;0.00;;;18.10;99.90;;;;;;5043086;28;20028;-94
2021/07/13 04:40:26;;;;;;;1.75;1.15;;;18.20;99.90;;;;;;5043209;28;20028;-95
2021/07/13 04:42:58;;;;;;;0.05;0.05;;;18.30;99.90;;;;;;5043063;28;20014;-94
2021/07/13 04:45:23;;;;;;;0.10;0.10;;;18.20;99.90;;;;;;5042721;28;20040;-95
2021/07/13 04:47:58;;;;;;;0.10;0.10;;;18.30;99.90;;;;;;5042984;28;20053;-94
2021/07/13 04:50:23;;;;;;;0.25;0.22;;;18.30;99.90;;;;;;5042754;28;20009;-94
2021/07/13 04:52:50;;;;;;;0.55;0.55;;;18.40;99.90;;;;;;5042591;28;20024;-93
2021/07/13 04:55:17;;;;;;;0.30;0.30;;;18.40;99.90;;;;;;5042479;28;20037;-94
2021/07/13 04:57:46;;;;;;;0.43;0.43;;;18.50;99.90;;;;;;5042647;28;20029;-94
2021/07/13 05:00:16;;;;;;;0.65;0.43;;;18.60;99.90;;;;;;5042486;28;20029;-95
2021/07/13 05:02:42;;;;;;;0.10;0.10;;;18.50;99.90;;;;;;5042034;28;20093;-96
2021/07/13 05:05:14;;;;;;;0.00;0.00;;;18.50;99.90;;;;;;5044598;28;20028;-95
2021/07/13 05:07:43;;;;;;;;;;;18.70;99.90;;;;;;5041189;28;20042;-94
2021/07/13 05:10:34;;;;;;;0.00;0.00;;;18.60;99.90;;;;;;5041430;28;19964;-93
2021/07/13 05:13:09;;;;;;;0.20;0.20;;;18.70;99.90;;;;;;5030176;23;20073;-76
2021/07/13 05:15:35;;;;;;;0.75;0.40;;;18.70;99.90;;;;;;5007651;28;20026;-75
2021/07/13 05:18:01;;;;;;;0.00;0.00;;;18.70;99.90;;;;;;5011218;28;20034;-75
2021/07/13 05:20:27;;;;;;;0.15;0.15;;;18.50;99.90;;;;;;5012058;28;20053;-76
2021/07/13 05:22:58;;;;;;;0.70;0.70;;;18.70;99.90;;;;;;5010244;28;20026;-76
2021/07/13 05:25:24;;;;;;;0.10;0.10;;;18.70;99.90;;;;;;5013183;28;20026;-76
2021/07/13 05:27:50;;;;;;;0.20;0.20;;;18.80;99.90;;;;;;5012667;28;20044;-75
2021/07/13 05:30:18;;;;;;;0.10;0.10;;;18.80;99.90;;;;;;4995696;28;20048;-76
2021/07/13 05:32:45;;;;;;;0.50;0.50;;;18.90;99.90;;;;;;5011872;28;20758;-75
2021/07/13 05:35:11;;;;;;;0.10;0.10;;;19.00;99.90;;;;;;5012898;28;20366;-76
2021/07/13 05:37:37;;;;;;;0.40;0.40;;;18.90;99.90;;;;;;5011475;28;20029;-76
2021/07/13 05:40:05;;;;;;;0.77;0.77;;;19.00;99.90;;;;;;5012307;28;20478;-76
2021/07/13 05:42:31;;;;;;;0.68;0.60;;;19.00;99.90;;;;;;5012786;28;20022;-76
2021/07/13 05:44:57;;;;;;;2.58;2.35;;;19.00;99.90;;;;;;5009949;28;20034;-75
2021/07/13 05:47:23;;;;;;;0.10;0.10;;;18.90;99.90;;;;;;5027062;28;20030;-75
2021/07/13 05:49:49;;;;;;;0.43;0.43;;;18.90;99.90;;;;;;5012291;28;20022;-76
2021/07/13 05:52:15;;;;;;;0.00;0.00;;;18.80;99.90;;;;;;5012727;28;20026;-75
2021/07/13 05:54:40;;;;;;;0.10;0.10;;;19.00;99.90;;;;;;5011904;28;20026;-75
2021/07/13 05:57:06;;;;;;;0.20;0.20;;;19.00;99.90;;;;;;5012403;28;20371;-76
2021/07/13 05:59:32;;;;;;;0.10;0.10;;;19.00;99.90;;;;;;5010703;28;20037;-76
2021/07/13 06:01:57;;;;;;;0.03;0.03;;;19.10;99.90;;;;;;5012450;28;20041;-77
2021/07/13 06:04:23;;;;;;;0.80;0.80;;;19.20;99.90;;;;;;5016390;28;20056;-77
2021/07/13 06:06:49;;;;;;;0.00;0.00;;;19.30;99.90;;;;;;5012614;28;20409;-76
2021/07/13 06:09:15;;;;;;;2.70;0.90;;;19.30;99.90;;;;;;5005904;28;20049;-76
2021/07/13 06:11:41;;;;;;;0.10;0.10;;;19.20;99.90;;;;;;4994799;28;20033;-75
2021/07/13 06:14:06;;;;;;;0.03;0.03;;;19.10;99.90;;;;;;5011709;28;20018;-76
2021/07/13 06:16:32;;;;;;;0.30;0.30;;;19.10;99.90;;;;;;5010894;28;20108;-76
2021/07/13 06:18:58;;;;;;;0.95;0.73;;;19.10;99.90;;;;;;4994300;28;20068;-76
2021/07/13 06:21:24;;;;;;;0.10;0.10;;;19.00;99.90;;;;;;5011035;28;20525;-76
2021/07/13 06:23:50;;;;;;;0.13;0.13;;;19.00;99.90;;;;;;5010197;28;20409;-76
2021/07/13 06:26:15;;;;;;;0.10;0.10;;;19.20;99.90;;;;;;5007989;28;20072;-76
2021/07/13 06:28:41;;;;;;;0.10;0.10;;;19.30;99.90;;;;;;5011106;28;20299;-76
2021/07/13 06:31:07;;;;;;;0.00;0.00;;;19.40;99.90;;;;;;5026926;23;20038;-74
2021/07/13 06:33:32;;;;;;;0.10;0.10;;;19.40;99.90;;;;;;5003606;28;20021;-74
2021/07/13 06:35:58;;;;;;;0.10;0.10;;;19.40;99.90;;;;;;5011863;28;20385;-74
2021/07/13 06:38:24;;;;;;;0.50;0.30;;;19.50;99.90;;;;;;5013710;28;20026;-74
2021/07/13 06:40:50;;;;;;;0.05;0.05;;;19.30;99.90;;;;;;5011537;28;20030;-73
2021/07/13 06:43:16;;;;;;;0.28;0.10;;;19.30;99.90;;;;;;5016414;28;20066;-74
2021/07/13 06:45:41;;;;;;;0.32;0.32;;;19.40;99.90;;;;;;5012373;28;20112;-74
2021/07/13 06:48:07;;;;;;;0.32;0.32;;;19.20;99.90;;;;;;5013786;28;20041;-74
2021/07/13 06:50:33;;;;;;;0.10;0.10;;;19.20;99.90;;;;;;5013320;28;20026;-74
2021/07/13 06:52:59;;;;;;;0.10;0.10;;;19.20;99.90;;;;;;5010055;28;20092;-74
2021/07/13 06:55:25;;;;;;;0.10;0.10;;;19.30;99.90;;;;;;5010413;28;20036;-74
2021/07/13 06:57:50;;;;;;;0.70;0.70;;;19.30;99.90;;;;;;5010700;28;20469;-74
2021/07/13 07:00:16;;;;;;;2.97;1.00;;;19.30;99.90;;;;;;5007807;28;20030;-74
2021/07/13 07:02:42;;;;;;;0.30;0.30;;;19.40;99.90;;;;;;5010657;28;20068;-75
2021/07/13 07:05:09;;;;;;;0.17;0.17;;;19.50;99.90;;;;;;5012828;28;20053;-75
2021/07/13 07:07:49;;;;;;;0.00;0.00;;;19.40;99.90;;;;;;4993702;28;20109;-75
2021/07/13 07:10:16;;;;;;;0.00;0.00;;;19.50;99.90;;;;;;5009403;28;20390;-75
2021/07/13 07:12:43;;;;;;;0.10;0.10;;;19.60;99.90;;;;;;4992855;28;20026;-75
2021/07/13 07:15:10;;;;;;;2.03;0.80;;;20.00;99.90;;;;;;4993112;28;20379;-75
2021/07/13 07:17:46;;;;;;;0.40;0.40;;;20.00;99.90;;;;;;5011041;28;20026;-74
2021/07/13 07:20:13;;;;;;;0.45;0.28;;;19.70;99.90;;;;;;5009512;28;20037;-75
2021/07/13 07:22:40;;;;;;;0.73;0.63;;;19.60;99.90;;;;;;5009798;28;20030;-75
2021/07/13 07:25:07;;;;;;;1.15;0.93;;;19.80;99.90;;;;;;5010315;28;20033;-75
2021/07/13 07:27:33;;;;;;;0.93;0.68;;;19.90;99.90;;;;;;4993016;28;20049;-75
2021/07/13 07:29:59;;;;;;;3.25;1.55;;;19.90;99.90;;;;;;4993017;28;20033;-75
2021/07/13 07:32:24;;;;;;;1.38;0.80;;;19.90;99.90;;;;;;5009416;28;20425;-75
2021/07/13 07:34:50;;;;;;;0.73;0.73;;;20.00;99.90;;;;;;4992874;28;20391;-75
2021/07/13 07:37:18;;;;;;;1.05;0.95;;;20.10;99.90;;;;;;5009681;28;20030;-75
2021/07/13 07:39:44;;;;;;;0.00;0.00;;;20.40;99.90;;;;;;5009096;28;20033;-75
2021/07/13 07:42:10;;;;;;;0.57;0.57;;;20.60;99.90;;;;;;5010469;28;20030;-75
2021/07/13 07:44:36;;;;;;;0.00;0.00;;;20.60;99.90;;;;;;5009373;28;20395;-74
2021/07/13 07:47:02;;;;;;;2.90;1.80;;;20.80;99.90;;;;;;5010739;28;20022;-76
2021/07/13 07:49:28;;;;;;;0.30;0.30;;;21.10;99.90;;;;;;5010768;28;20554;-75
2021/07/13 07:51:54;;;;;;;0.10;0.10;;;21.00;99.90;;;;;;5010142;28;20161;-75
2021/07/13 07:54:19;;;;;;;0.00;0.00;;;21.00;99.90;;;;;;5009289;28;20418;-75
2021/07/13 07:56:45;;;;;;;0.00;0.00;;;21.20;99.90;;;;;;4992415;28;20041;-75
2021/07/13 07:59:11;;;;;;;0.00;0.00;;;21.30;99.90;;;;;;4993272;28;20026;-75
2021/07/13 08:01:36;;;;;;;0.40;0.40;;;21.60;99.90;;;;;;5008695;28;20057;-75
2021/07/13 08:04:02;;;;;;;2.28;0.63;;;21.80;99.90;;;;;;5009121;28;20061;-75
2021/07/13 08:06:28;;;;;;;0.50;0.50;;;22.00;99.90;;;;;;5008552;28;20442;-75
2021/07/13 08:08:54;;;;;;;0.30;0.30;;;21.90;99.90;;;;;;5012089;28;20110;-76
2021/07/13 08:11:19;;;;;;;0.45;0.45;;;21.90;99.90;;;;;;5012444;28;20117;-75
2021/07/13 08:13:45;;;;;;;0.10;0.10;;;22.00;99.90;;;;;;5014278;28;20030;-75
2021/07/13 08:16:11;;;;;;;1.00;0.65;;;22.00;99.90;;;;;;5013997;28;20026;-75
2021/07/13 08:18:37;;;;;;;0.00;0.00;;;22.20;99.90;;;;;;5018413;28;20053;-74
2021/07/13 08:21:02;;;;;;;7.28;2.60;;;22.40;99.90;;;;;;5012220;28;20040;-73
2021/07/13 08:23:29;;;;;;;3.47;2.15;;;22.40;99.90;;;;;;5012593;28;20400;-74
2021/07/13 08:25:54;;;;;;;1.40;0.93;;;22.00;99.90;;;;;;5011936;28;20109;-74
2021/07/13 08:28:21;;;;;;;1.17;0.90;;;22.00;99.90;;;;;;5012561;28;20109;-74
2021/07/13 08:30:47;;;;;;;1.42;1.25;;;22.10;99.90;;;;;;5013090;28;20045;-74
2021/07/13 08:33:12;;;;;;;1.52;0.88;;;22.40;99.90;;;;;;5012521;28;20541;-74
2021/07/13 08:35:38;;;;;;;5.22;1.70;;;21.90;99.90;;;;;;5013436;28;20569;-74
2021/07/13 08:38:04;;;;;;;1.45;1.25;;;21.90;99.90;;;;;;5013532;28;20038;-74
2021/07/13 08:40:32;;;;;;;0.00;0.00;;;21.90;99.90;;;;;;5011792;28;20026;-74
2021/07/13 08:42:58;;;;;;;1.20;1.10;;;22.00;99.90;;;;;;4995624;28;20421;-74
2021/07/13 08:45:24;;;;;;;0.45;0.45;;;21.90;99.90;;;;;;5013708;28;20029;-74
2021/07/13 08:47:50;;;;;;;0.43;0.22;;;22.20;99.90;;;;;;5013108;28;20026;-74
2021/07/13 08:50:19;;;;;;;0.45;0.45;;;22.40;99.90;;;;;;5013574;28;20034;-74
2021/07/13 08:52:45;;;;;;;9.23;2.40;;;22.40;99.90;;;;;;5013092;28;20026;-75
2021/07/13 08:55:12;;;;;;;0.20;0.20;;;22.60;99.90;;;;;;5013449;28;20072;-75
2021/07/13 08:57:42;;;;;;;0.20;0.20;;;22.80;99.90;;;;;;4995137;28;20033;-75
2021/07/13 09:00:15;;;;;;;1.60;1.50;;;22.90;99.90;;;;;;4995948;28;20022;-75
2021/07/13 09:03:03;;;;;;;2.00;1.33;;;22.50;99.90;;;;;;5011968;28;20501;-75
2021/07/13 09:05:33;;;;;;;2.20;1.58;;;22.50;99.90;;;;;;5009549;28;20033;-75
2021/07/13 09:08:11;;;;;;;0.10;0.10;;;22.80;99.90;;;;;;5011550;28;20075;-75
2021/07/13 09:10:37;;;;;;;3.60;0.77;;;23.00;99.90;;;;;;5013331;28;20481;-75
2021/07/13 09:13:03;;;;;;;0.90;0.90;;;22.90;99.90;;;;;;4994922;28;20053;-75
2021/07/13 09:15:28;;;;;;;0.38;0.38;;;23.10;99.90;;;;;;5011669;28;20052;-75
2021/07/13 09:17:54;;;;;;;5.10;2.47;;;23.30;99.90;;;;;;5010899;28;20049;-74
2021/07/13 09:20:27;;;;;;;0.65;0.65;;;22.90;99.90;;;;;;4994333;28;20184;-74
2021/07/13 09:22:59;;;;;;;2.25;2.05;;;22.90;99.90;;;;;;5011087;28;20022;-74
2021/07/13 09:25:32;;;;;;;;;;;22.80;99.90;;;;;;5013906;28;20037;-74
2021/07/13 09:28:21;;;;;;;4.68;2.13;;;22.60;99.90;;;;;;4994201;28;19910;-74
2021/07/13 09:30:52;;;;;;;1.65;1.38;;;22.40;99.90;;;;;;5011356;28;20022;-74
2021/07/13 09:33:22;;;;;;;0.60;0.60;;;22.10;99.90;;;;;;5009881;28;20382;-74
2021/07/13 09:36:04;;;;;;;0.93;0.60;;;22.10;99.90;;;;;;5012743;28;20037;-74
2021/07/13 09:38:36;;;;;;;1.02;0.75;;;22.20;99.90;;;;;;5011971;28;20022;-74
2021/07/13 09:41:12;;;;;;;1.45;0.93;;;22.40;99.90;;;;;;5011439;28;20375;-74
2021/07/13 09:43:49;;;;;;;0.98;0.90;;;22.60;99.90;;;;;;5010802;28;20041;-74
2021/07/13 09:46:29;;;;;;;0.98;0.95;;;22.50;99.90;;;;;;5014867;28;20025;-74
2021/07/13 09:49:14;;;;;;;0.88;0.65;;;22.30;99.90;;;;;;5012845;28;20056;-74
2021/07/13 09:51:46;;;;;;;0.85;0.75;;;22.10;99.90;;;;;;5009798;28;20030;-74
2021/07/13 09:54:33;;;;;;;0.43;0.43;;;22.10;99.90;;;;;;4996732;28;20494;-74
2021/07/13 09:57:01;;;;;;;0.68;0.57;;;22.10;99.90;;;;;;5008275;28;20053;-74
2021/07/13 09:59:27;;;;;;;2.80;1.67;;;21.60;99.90;;;;;;5012370;28;20115;-74
2021/07/13 10:01:53;;;;;;;2.80;1.35;;;21.50;99.90;;;;;;5010128;28;20501;-74
2021/07/13 10:04:19;;;;;;;0.85;0.85;;;21.20;99.90;;;;;;5014862;28;20389;-74
2021/07/13 10:06:46;;;;;;;3.00;1.50;;;21.30;99.90;;;;;;4997502;28;20052;-74
2021/07/13 10:09:13;;;;;;;1.13;0.88;;;21.30;99.90;;;;;;5011220;28;20617;-74
2021/07/13 10:11:40;;;;;;;0.85;0.85;;;21.00;99.90;;;;;;5012148;28;20096;-74
2021/07/13 10:14:10;;;;;;;0.90;0.82;;;21.10;99.90;;;;;;5011284;28;20101;-74
2021/07/13 10:16:36;;;;;;;0.50;0.50;;;21.00;99.90;;;;;;5010647;28;20061;-74
2021/07/13 10:19:06;;;;;;;0.00;0.00;;;21.10;99.90;;;;;;5011351;28;20022;-74
2021/07/13 10:21:33;;;;;;;1.27;1.17;;;21.00;99.90;;;;;;5008575;28;20552;-74
2021/07/13 10:24:00;;;;;;;0.08;0.08;;;20.80;99.90;;;;;;5009564;28;20057;-74
2021/07/13 10:26:47;;;;;;;1.15;0.88;;;20.50;99.90;;;;;;5008494;28;20037;-74
2021/07/13 10:29:31;;;;;;;0.10;0.10;;;20.30;99.90;;;;;;5008681;28;20021;-74
2021/07/13 10:31:58;;;;;;;1.88;0.55;;;20.10;99.90;;;;;;5014060;28;20505;-74
2021/07/13 10:35:04;;;;;;;0.40;0.40;;;20.00;99.90;;;;;;5011958;28;20113;-74
2021/07/13 10:37:33;;;;;;;0.30;0.30;;;20.10;99.90;;;;;;5010967;28;20034;-74
2021/07/13 10:40:06;;;;;;;0.00;0.00;;;20.40;99.90;;;;;;5011446;28;20029;-74
2021/07/13 10:42:41;;;;;;;0.55;0.30;;;20.40;99.90;;;;;;5010684;28;20029;-74
2021/07/13 10:45:35;;;;;;;0.43;0.40;;;20.10;99.90;;;;;;5011193;28;20580;-74
2021/07/13 10:48:15;;;;;;;0.17;0.17;;;19.80;99.90;;;;;;5010408;28;20026;-74
2021/07/13 10:50:48;;;;;;;0.20;0.20;;;19.80;99.90;;;;;;5009986;28;20030;-74
2021/07/13 10:53:29;;;;;;;0.03;0.03;;;19.70;99.90;;;;;;5010551;28;20030;-73
2021/07/13 10:56:02;;;;;;;0.10;0.10;;;19.70;99.90;;;;;;5008789;28;20113;-74
2021/07/13 10:58:36;;;;;;;0.00;0.00;;;19.70;99.90;;;;;;5010472;28;20512;-74
2021/07/13 11:01:05;;;;;;;0.30;0.30;;;19.80;99.90;;;;;;4989754;28;20033;-74
2021/07/13 11:03:31;;;;;;;0.08;0.08;;;19.70;99.90;;;;;;5014445;28;20154;-74
2021/07/13 11:06:11;;;;;;;0.57;0.35;;;19.50;99.90;;;;;;5009732;28;20437;-74
2021/07/13 11:11:14;;;;;;;0.20;0.20;;;19.20;99.90;;;;;;5009736;28;20085;-74
2021/07/13 11:14:02;;;;;;;0.10;0.10;;;19.00;99.90;;;;;;4992790;28;20388;-74
2021/07/13 11:16:40;;;;;;;0.45;0.45;;;19.10;99.90;;;;;;4991740;28;20033;-74
2021/07/13 11:19:12;;;;;;;0.20;0.15;;;19.10;99.90;;;;;;5007543;28;20025;-74
2021/07/13 11:21:38;;;;;;;;;;;19.00;99.90;;;;;;5012277;28;20045;-74
2021/07/13 11:24:05;;;;;;;0.10;0.10;;;19.00;99.90;;;;;;5010842;28;20352;-74
2021/07/13 11:26:31;;;;;;;0.20;0.20;;;18.80;99.90;;;;;;4993133;28;20029;-74
2021/07/13 11:28:59;;;;;;;0.20;0.20;;;18.90;99.90;;;;;;4994429;28;20072;-74
2021/07/13 11:31:31;;;;;;;2.08;0.68;;;19.10;99.90;;;;;;4992853;28;20494;-74
2021/07/13 11:33:59;;;;;;;0.00;0.00;;;19.00;99.90;;;;;;5008971;28;20076;-73
2021/07/13 11:36:33;;;;;;;0.17;0.17;;;18.80;99.90;;;;;;5013491;28;20517;-73
2021/07/13 11:39:02;;;;;;;2.20;0.52;;;18.90;99.90;;;;;;4988786;28;20022;-74
2021/07/13 11:41:29;;;;;;;0.00;0.00;;;18.60;99.90;;;;;;5009251;28;20595;-74
2021/07/13 11:43:58;;;;;;;0.63;0.40;;;18.50;99.90;;;;;;5013483;28;20113;-74
2021/07/13 11:46:26;;;;;;;0.30;0.30;;;18.70;99.90;;;;;;5014792;28;20029;-74
2021/07/13 11:48:59;;;;;;;0.10;0.10;;;18.90;99.90;;;;;;5009926;28;20022;-74
2021/07/13 11:51:27;;;;;;;0.20;0.20;;;18.70;99.90;;;;;;5013370;28;20149;-74
2021/07/13 11:54:13;;;;;;;0.13;0.13;;;18.60;99.90;;;;;;5015492;28;20372;-74
2021/07/13 11:56:45;;;;;;;0.20;0.20;;;18.40;99.90;;;;;;5011966;28;20033;-74
2021/07/13 11:59:11;;;;;;;;;;;18.40;99.90;;;;;;5014117;28;20087;-74
2021/07/13 12:01:37;;;;;;;0.30;0.30;;;18.80;99.90;;;;;;5012147;28;20349;-73
2021/07/13 12:04:05;;;;;;;0.10;0.10;;;18.50;99.90;;;;;;5011510;28;20504;-74
2021/07/13 12:06:32;;;;;;;0.15;0.15;;;18.20;99.90;;;;;;4997658;28;20393;-74
2021/07/13 12:09:08;;;;;;;0.10;0.10;;;18.30;99.90;;;;;;5016205;28;20448;-74
2021/07/13 12:11:36;;;;;;;0.20;0.20;;;18.10;99.90;;;;;;5014853;28;20509;-74
2021/07/13 12:14:04;;;;;;;0.35;0.20;;;17.90;99.90;;;;;;5012003;28;20079;-74
2021/07/13 12:16:31;;;;;;;0.10;0.10;;;17.90;99.90;;;;;;5014032;28;20449;-74
2021/07/13 12:19:00;;;;;;;0.22;0.22;;;18.20;99.90;;;;;;5014910;28;20122;-74
2021/07/13 12:21:26;;;;;;;0.10;0.10;;;18.20;99.90;;;;;;5016800;28;20151;-74
2021/07/13 12:23:54;;;;;;;0.55;0.45;;;18.20;99.90;;;;;;5012193;28;20057;-74
2021/07/13 12:26:36;;;;;;;2.10;0.20;;;18.40;99.90;;;;;;5012791;28;20509;-73
2021/07/13 12:29:18;;;;;;;;;;;18.50;99.90;;;;;;5012200;28;20022;-74
2021/07/13 12:31:44;;;;;;;0.00;0.00;;;18.20;99.90;;;;;;5008584;28;19944;-74
2021/07/13 12:34:24;;;;;;;0.10;0.10;;;18.40;99.90;;;;;;4994030;28;20030;-74
2021/07/13 12:37:11;;;;;;;0.10;0.10;;;18.70;99.90;;;;;;5008803;28;20109;-74
2021/07/13 12:39:40;;;;;;;0.10;0.10;;;18.70;99.90;;;;;;5012700;28;20588;-74
2021/07/13 12:42:26;;;;;;;0.00;0.00;;;18.40;99.90;;;;;;5012041;28;20026;-75
2021/07/13 12:45:25;;;;;;;0.10;0.10;;;18.30;99.90;;;;;;5012856;28;20154;-75
2021/07/13 12:47:54;;;;;;;0.10;0.10;;;18.00;99.90;;;;;;4990901;28;20038;-75
2021/07/13 12:50:29;;;;;;;0.10;0.10;;;17.90;99.90;;;;;;5012401;28;20029;-74
2021/07/13 12:53:06;;;;;;;0.10;0.10;;;17.90;99.90;;;;;;5012450;28;20061;-75
2021/07/13 12:55:48;;;;;;;0.20;0.20;;;17.70;99.90;;;;;;5013073;28;20104;-74
2021/07/13 12:58:20;;;;;;;0.15;0.15;;;17.70;99.90;;;;;;5012127;28;20053;-74
2021/07/13 13:00:48;;;;;;;0.10;0.10;;;17.60;99.90;;;;;;5008051;28;20028;-74
2021/07/13 13:03:16;;;;;;;0.10;0.10;;;17.70;99.90;;;;;;5015536;28;20032;-74